Terminal Aerodrome Forecast
Issued by NWS Raleigh/Durham, NC

Home | Current Version | Previous Version | Text Only | Print | Product List | Glossary On
Versions: 1 2 3 4 5 6 7 8 9 10 11 12 13 14 15 16 17 18 19 20 21 22 23 24 25 26 27 28 29 30 31
612
FTUS42 KRAH 211136
TAFGSO
TAF
KGSO 211136Z 2112/2212 00000KT 1/2SM FG VV003
      TEMPO 2115/2119 2SM BR OVC005
     FM211900 VRB03KT P6SM OVC007
      TEMPO 2122/2202 2SM SHRA OVC010
     FM220400 VRB03KT 1SM BR OVC002=

USA.gov is the U.S. government's official web portal to all federal, state and local government web resources and services.